createdAt,value
2023-02-12T00:01:54.448Z,8.70
2023-02-12T00:04:23.409Z,8.87
2023-02-12T00:06:52.352Z,9.00
2023-02-12T00:09:21.283Z,8.85
2023-02-12T00:11:50.586Z,8.38
2023-02-12T00:14:21.577Z,8.58
2023-02-12T00:16:53.752Z,8.80
2023-02-12T00:19:22.817Z,8.31
2023-02-12T00:21:51.723Z,8.03
2023-02-12T00:24:20.681Z,7.90
2023-02-12T00:26:52.755Z,7.85
2023-02-12T00:29:22.518Z,8.01
2023-02-12T00:31:51.429Z,7.87
2023-02-12T00:34:20.482Z,7.68
2023-02-12T00:36:49.578Z,8.04
2023-02-12T00:39:18.587Z,8.43
2023-02-12T00:41:47.503Z,8.34
2023-02-12T00:44:16.883Z,8.52
2023-02-12T00:46:45.964Z,8.38
2023-02-12T00:49:15.106Z,8.46
2023-02-12T00:51:45.058Z,8.46
2023-02-12T00:54:14.012Z,8.40
2023-02-12T00:56:43.332Z,8.53
2023-02-12T00:59:12.354Z,8.48
2023-02-12T01:01:45.664Z,7.97
2023-02-12T01:04:18.126Z,8.07
2023-02-12T01:07:02.979Z,7.78
2023-02-12T01:09:42.912Z,7.96
2023-02-12T01:12:12.179Z,7.99
2023-02-12T01:14:41.801Z,7.97
2023-02-12T01:17:13.386Z,7.96
2023-02-12T01:19:46.584Z,8.04
2023-02-12T01:22:15.722Z,8.00
2023-02-12T01:24:53.395Z,7.90
2023-02-12T01:27:22.526Z,7.83
2023-02-12T01:32:56.613Z,7.76
2023-02-12T01:35:25.861Z,7.72
2023-02-12T01:37:57.449Z,7.71
2023-02-12T01:40:28.420Z,7.69
2023-02-12T01:43:01.032Z,7.51
2023-02-12T01:45:30.039Z,7.40
2023-02-12T01:48:02.239Z,7.41
2023-02-12T01:50:41.460Z,7.29
2023-02-12T01:53:22.924Z,7.15
2023-02-12T01:55:57.215Z,7.15
2023-02-12T01:58:30.014Z,7.05
2023-02-12T02:01:13.553Z,7.00
2023-02-12T02:03:46.454Z,7.01
2023-02-12T02:06:29.130Z,6.93
2023-02-12T02:08:58.499Z,6.97
2023-02-12T02:11:45.764Z,6.94
2023-02-12T02:14:35.032Z,6.91
2023-02-12T02:17:36.381Z,6.87
2023-02-12T02:20:22.181Z,6.88
2023-02-12T02:23:20.567Z,6.80
2023-02-12T02:26:27.615Z,6.65
2023-02-12T02:29:18.053Z,6.59
2023-02-12T02:31:55.814Z,6.44
2023-02-12T02:34:42.468Z,6.40
2023-02-12T02:37:28.426Z,6.34
2023-02-12T02:40:25.687Z,6.37
2023-02-12T02:43:21.546Z,6.27
2023-02-12T02:45:56.369Z,6.19
2023-02-12T02:49:08.597Z,6.06
2023-02-12T02:52:03.115Z,6.05
2023-02-12T02:54:38.430Z,6.08
2023-02-12T02:57:15.696Z,6.00
2023-02-12T02:59:51.505Z,5.66
2023-02-12T03:02:32.567Z,5.59
2023-02-12T03:05:10.683Z,5.57
2023-02-12T03:07:52.137Z,5.69
2023-02-12T03:10:40.077Z,5.86
2023-02-12T03:13:14.271Z,5.88
2023-02-12T03:15:55.534Z,5.78
2023-02-12T03:18:31.621Z,5.65
2023-02-12T03:21:10.411Z,5.77
2023-02-12T03:23:59.456Z,5.78
2023-02-12T03:26:51.828Z,5.71
2023-02-12T03:29:21.797Z,5.70
2023-02-12T03:32:38.643Z,5.67
2023-02-12T03:35:13.543Z,5.65
2023-02-12T03:38:16.576Z,5.61
2023-02-12T03:41:19.400Z,5.57
2023-02-12T03:44:03.021Z,5.52
2023-02-12T03:46:40.972Z,5.46
2023-02-12T03:49:30.657Z,5.44
2023-02-12T03:52:03.252Z,5.16
2023-02-12T03:54:34.915Z,5.08
2023-02-12T03:57:24.723Z,5.16
2023-02-12T03:59:56.198Z,5.25
2023-02-12T04:02:25.208Z,5.22
2023-02-12T04:04:57.186Z,5.17
2023-02-12T04:07:26.557Z,5.07
2023-02-12T04:09:58.585Z,5.01
2023-02-12T04:12:46.575Z,5.05
2023-02-12T04:15:23.399Z,5.13
2023-02-12T04:18:16.839Z,5.20
2023-02-12T04:21:14.077Z,5.12
2023-02-12T04:23:54.505Z,4.98
2023-02-12T04:26:45.679Z,4.89
2023-02-12T04:29:36.686Z,4.82
2023-02-12T04:32:14.317Z,4.87
2023-02-12T04:34:48.966Z,4.79
2023-02-12T04:37:31.964Z,4.76
2023-02-12T04:40:09.568Z,4.82
2023-02-12T04:42:52.489Z,4.79
2023-02-12T04:45:32.439Z,4.61
2023-02-12T04:48:05.704Z,4.51
2023-02-12T04:50:43.806Z,4.55
2023-02-12T04:53:13.469Z,4.58
2023-02-12T04:55:42.559Z,4.54
2023-02-12T04:58:14.637Z,4.53
2023-02-12T05:00:47.031Z,4.54
2023-02-12T05:03:19.085Z,4.59
2023-02-12T05:05:48.136Z,4.51
2023-02-12T05:08:19.873Z,4.33
2023-02-12T05:10:48.973Z,3.67
2023-02-12T05:13:24.312Z,3.96
2023-02-12T05:15:59.799Z,4.10
2023-02-12T05:18:50.692Z,4.21
2023-02-12T05:21:23.071Z,3.96
2023-02-12T05:23:57.900Z,4.07
2023-02-12T05:26:29.774Z,4.10
2023-02-12T05:28:58.795Z,4.04
2023-02-12T05:31:28.115Z,3.91
2023-02-12T05:33:57.173Z,3.81
2023-02-12T05:36:26.773Z,3.98
2023-02-12T05:38:59.927Z,3.95
2023-02-12T05:41:29.816Z,3.97
2023-02-12T05:43:58.656Z,3.96
2023-02-12T05:46:30.814Z,4.01
2023-02-12T05:48:59.869Z,3.95
2023-02-12T05:51:29.177Z,3.80
2023-02-12T05:54:03.071Z,3.63
2023-02-12T05:56:34.870Z,3.80
2023-02-12T05:59:10.467Z,3.87
2023-02-12T06:01:42.582Z,3.81
2023-02-12T06:04:20.750Z,3.78
2023-02-12T06:06:53.913Z,3.81
2023-02-12T06:09:24.728Z,3.78
2023-02-12T06:11:53.721Z,3.90
2023-02-12T06:14:22.815Z,3.89
2023-02-12T06:16:53.160Z,3.81
2023-02-12T06:19:22.871Z,3.77
2023-02-12T06:21:53.965Z,3.69
2023-02-12T06:24:22.918Z,3.69
2023-02-12T06:26:52.770Z,3.63
2023-02-12T06:29:22.623Z,3.65
2023-02-12T06:31:51.788Z,3.70
2023-02-12T06:34:20.825Z,3.69
2023-02-12T06:36:49.894Z,3.59
2023-02-12T06:39:19.422Z,3.65
2023-02-12T06:41:48.326Z,3.64
2023-02-12T06:44:17.600Z,3.62
2023-02-12T06:46:46.840Z,3.59
2023-02-12T06:49:17.401Z,3.56
2023-02-12T06:51:46.399Z,3.49
2023-02-12T06:54:17.630Z,3.42
2023-02-12T06:56:49.935Z,3.36
2023-02-12T06:59:19.492Z,3.34
2023-02-12T07:01:51.448Z,3.31
2023-02-12T07:04:20.480Z,3.22
2023-02-12T07:06:50.109Z,3.23
2023-02-12T07:09:19.534Z,3.22
2023-02-12T07:11:48.408Z,3.19
2023-02-12T07:14:17.916Z,3.13
2023-02-12T07:16:47.017Z,3.15
2023-02-12T07:19:18.739Z,3.14
2023-02-12T07:21:47.860Z,3.15
2023-02-12T07:24:19.121Z,3.07
2023-02-12T07:26:48.264Z,3.01
2023-02-12T07:29:18.018Z,3.00
2023-02-12T07:31:47.379Z,3.00
2023-02-12T07:34:16.328Z,2.98
2023-02-12T07:36:45.285Z,2.90
2023-02-12T07:39:14.259Z,2.90
2023-02-12T07:41:55.164Z,2.84
2023-02-12T07:44:24.126Z,2.86
2023-02-12T07:46:53.259Z,2.82
2023-02-12T07:49:23.636Z,2.87
2023-02-12T07:51:52.646Z,2.82
2023-02-12T07:54:21.534Z,2.77
2023-02-12T07:56:52.662Z,2.82
2023-02-12T07:59:22.287Z,2.77
2023-02-12T08:01:54.055Z,2.61
2023-02-12T08:04:25.861Z,2.45
2023-02-12T08:06:57.090Z,2.38
2023-02-12T08:09:28.202Z,2.43
2023-02-12T08:12:00.237Z,2.49
2023-02-12T08:14:30.224Z,2.48
2023-02-12T08:17:02.157Z,2.34
2023-02-12T08:19:31.126Z,2.28
2023-02-12T08:22:00.191Z,2.10
2023-02-12T08:24:29.804Z,2.11
2023-02-12T08:26:58.945Z,2.19
2023-02-12T08:29:31.445Z,2.28
2023-02-12T08:32:02.773Z,2.32
2023-02-12T08:34:34.389Z,2.35
2023-02-12T08:37:05.532Z,2.35
2023-02-12T08:39:34.613Z,2.33
2023-02-12T08:42:03.497Z,2.23
2023-02-12T08:44:32.699Z,2.00
2023-02-12T08:47:01.813Z,1.92
2023-02-12T08:49:32.123Z,2.05
2023-02-12T08:52:03.207Z,1.95
2023-02-12T08:54:33.526Z,1.71
2023-02-12T08:57:04.446Z,1.58
2023-02-12T08:59:33.730Z,1.65
2023-02-12T09:02:04.960Z,1.70
2023-02-12T09:04:37.118Z,1.91
2023-02-12T09:07:13.452Z,1.73
2023-02-12T09:09:42.587Z,1.68
2023-02-12T09:12:11.447Z,1.45
2023-02-12T09:14:42.483Z,1.36
2023-02-12T09:17:11.587Z,1.48
2023-02-12T09:19:42.586Z,1.43
2023-02-12T09:22:11.680Z,1.38
2023-02-12T09:24:40.952Z,1.39
2023-02-12T09:27:12.492Z,1.54
2023-02-12T09:29:41.427Z,1.67
2023-02-12T09:32:11.398Z,1.80
2023-02-12T09:34:40.656Z,1.68
2023-02-12T09:37:09.620Z,1.53
2023-02-12T09:39:38.736Z,1.54
2023-02-12T09:42:54.189Z,1.04
2023-02-12T09:45:27.432Z,0.97
2023-02-12T09:48:18.216Z,1.32
2023-02-12T09:50:55.849Z,1.50
2023-02-12T09:53:29.017Z,1.67
2023-02-12T09:55:58.535Z,1.75
2023-02-12T09:58:50.864Z,1.59
2023-02-12T10:01:23.695Z,1.60
2023-02-12T10:03:56.866Z,1.58
2023-02-12T10:06:42.670Z,1.63
2023-02-12T10:09:40.425Z,1.49
2023-02-12T10:12:18.615Z,1.79
2023-02-12T10:14:59.434Z,1.78
2023-02-12T10:17:40.805Z,1.44
2023-02-12T10:20:53.299Z,1.15
2023-02-12T10:23:40.493Z,1.05
2023-02-12T10:26:53.161Z,1.07
2023-02-12T10:29:26.421Z,1.09
2023-02-12T10:32:14.754Z,1.33
2023-02-12T10:34:44.110Z,1.62
2023-02-12T10:37:23.131Z,1.49
2023-02-12T10:40:01.276Z,1.59
2023-02-12T10:42:42.981Z,1.31
2023-02-12T10:45:25.093Z,1.22
2023-02-12T10:48:04.937Z,1.23
2023-02-12T10:50:58.801Z,1.38
2023-02-12T10:53:43.749Z,0.82
2023-02-12T10:56:18.671Z,0.98
2023-02-12T10:59:02.400Z,1.11
2023-02-12T11:01:37.935Z,1.26
2023-02-12T11:04:25.107Z,1.33
2023-02-12T11:07:01.245Z,1.13
2023-02-12T11:09:51.763Z,1.26
2023-02-12T11:12:39.405Z,1.35
2023-02-12T11:15:14.163Z,1.23
2023-02-12T11:17:56.554Z,1.23
2023-02-12T11:20:30.615Z,1.08
2023-02-12T11:23:08.114Z,1.12
2023-02-12T11:25:38.985Z,1.06
2023-02-12T11:28:17.992Z,1.03
2023-02-12T11:31:11.306Z,1.24
2023-02-12T11:33:40.667Z,1.17
2023-02-12T11:36:20.830Z,1.39
2023-02-12T11:39:00.674Z,1.18
2023-02-12T11:41:42.342Z,1.19
2023-02-12T11:44:33.316Z,1.07
2023-02-12T11:47:09.706Z,1.01
2023-02-12T11:49:45.428Z,0.92
2023-02-12T11:52:25.526Z,1.11
2023-02-12T11:55:01.532Z,0.99
2023-02-12T11:57:50.099Z,1.03
2023-02-12T12:00:24.911Z,0.94
2023-02-12T12:03:13.245Z,1.08
2023-02-12T12:05:49.295Z,1.01
2023-02-12T12:08:45.333Z,1.08
2023-02-12T12:11:30.901Z,1.05
2023-02-12T12:14:15.285Z,1.13
2023-02-12T12:17:24.638Z,1.06
2023-02-12T12:20:22.907Z,0.68
2023-02-12T12:23:01.621Z,0.71
2023-02-12T12:25:44.901Z,0.68
2023-02-12T12:28:37.794Z,0.66
2023-02-12T12:31:20.850Z,0.79
2023-02-12T12:34:07.174Z,1.08
2023-02-12T12:36:40.804Z,1.44
2023-02-12T12:39:28.280Z,1.37
2023-02-12T12:42:00.001Z,1.07
2023-02-12T12:45:03.777Z,1.08
2023-02-12T12:48:09.440Z,1.31
2023-02-12T12:51:03.625Z,1.36
2023-02-12T12:53:50.538Z,1.34
2023-02-12T12:56:47.456Z,1.43
2023-02-12T12:59:41.730Z,1.49
2023-02-12T13:02:35.116Z,1.37
2023-02-12T13:05:25.214Z,1.34
2023-02-12T13:08:12.208Z,1.33
2023-02-12T13:10:51.975Z,1.42
2023-02-12T13:13:24.241Z,1.45
2023-02-12T13:16:24.472Z,1.48
2023-02-12T13:19:39.406Z,1.58
2023-02-12T13:22:37.146Z,1.44
2023-02-12T13:25:05.740Z,1.39
2023-02-12T13:27:41.361Z,1.41
2023-02-12T13:30:16.915Z,1.42
2023-02-12T13:32:48.979Z,1.45
2023-02-12T13:35:22.745Z,1.52
2023-02-12T13:37:56.159Z,1.50
2023-02-12T13:40:28.416Z,1.49
2023-02-12T13:43:23.233Z,1.42
2023-02-12T13:46:17.232Z,1.53
2023-02-12T13:49:10.276Z,1.53
2023-02-12T13:51:47.798Z,1.56
2023-02-12T13:54:28.632Z,1.57
2023-02-12T13:57:01.177Z,1.54
2023-02-12T13:59:33.285Z,1.50
2023-02-12T14:02:07.333Z,1.39
2023-02-12T14:04:47.407Z,1.29
2023-02-12T14:07:17.581Z,1.30
2023-02-12T14:09:51.624Z,1.23
2023-02-12T14:12:26.702Z,1.09
2023-02-12T14:15:12.595Z,0.87
2023-02-12T14:17:42.952Z,1.10
2023-02-12T14:20:30.734Z,1.30
2023-02-12T14:23:24.914Z,1.27
2023-02-12T14:26:19.281Z,1.27
2023-02-12T14:28:56.832Z,1.25
2023-02-12T14:31:28.904Z,1.29
2023-02-12T14:34:07.006Z,1.36
2023-02-12T14:36:39.838Z,1.36
2023-02-12T14:39:21.003Z,1.33
2023-02-12T14:41:54.222Z,1.34
2023-02-12T14:44:28.272Z,1.31
2023-02-12T14:47:00.113Z,1.34
2023-02-12T14:49:38.679Z,1.28
2023-02-12T14:52:13.680Z,1.31
2023-02-12T14:54:42.593Z,1.30
2023-02-12T14:57:19.936Z,1.30
2023-02-12T14:59:50.650Z,1.25
2023-02-12T15:02:35.917Z,1.18
2023-02-12T15:05:18.131Z,0.88
2023-02-12T15:07:56.998Z,1.01
2023-02-12T15:10:38.449Z,0.99
2023-02-12T15:13:26.712Z,1.10
2023-02-12T15:16:08.759Z,1.25
2023-02-12T15:18:58.039Z,1.33
2023-02-12T15:21:32.468Z,1.05
2023-02-12T15:24:13.263Z,1.12
2023-02-12T15:26:50.620Z,1.03
2023-02-12T15:29:30.469Z,1.35
2023-02-12T15:32:02.915Z,1.39
2023-02-12T15:34:36.945Z,0.82
2023-02-12T15:37:08.427Z,1.07
2023-02-12T15:39:46.024Z,1.03
2023-02-12T15:42:35.962Z,0.77
2023-02-12T15:45:16.686Z,1.33
2023-02-12T15:47:48.207Z,1.31
2023-02-12T15:50:19.039Z,1.07
2023-02-12T15:52:50.336Z,1.30
2023-02-12T15:55:26.642Z,1.18
2023-02-12T15:57:58.642Z,0.90
2023-02-12T16:00:40.401Z,0.78
2023-02-12T16:03:27.802Z,0.88
2023-02-12T16:06:17.564Z,1.09
2023-02-12T16:09:03.440Z,1.05
2023-02-12T16:11:34.577Z,1.05
2023-02-12T16:14:08.579Z,1.32
2023-02-12T16:16:53.589Z,1.20
2023-02-12T16:19:31.117Z,1.03
2023-02-12T16:22:06.525Z,0.91
2023-02-12T16:24:48.012Z,1.02
2023-02-12T16:27:16.930Z,1.09
2023-02-12T16:29:49.939Z,0.65
2023-02-12T16:32:43.859Z,0.85
2023-02-12T16:35:12.980Z,1.04
2023-02-12T16:37:46.202Z,1.18
2023-02-12T16:40:15.129Z,0.87
2023-02-12T16:42:50.117Z,0.79
2023-02-12T16:45:36.545Z,0.68
2023-02-12T16:48:19.437Z,0.65
2023-02-12T16:50:54.855Z,0.91
2023-02-12T16:53:31.816Z,0.90
2023-02-12T16:56:02.466Z,0.86
2023-02-12T16:58:31.645Z,1.03
2023-02-12T17:01:03.992Z,0.96
2023-02-12T17:03:33.259Z,0.95
2023-02-12T17:06:02.292Z,1.15
2023-02-12T17:08:31.511Z,1.73
2023-02-12T17:11:00.406Z,1.44
2023-02-12T17:13:36.739Z,1.63
2023-02-12T17:16:30.315Z,1.38
2023-02-12T17:19:00.785Z,1.40
2023-02-12T17:21:40.034Z,1.52
2023-02-12T17:24:27.129Z,1.51
2023-02-12T17:26:56.316Z,1.28
2023-02-12T17:29:32.757Z,1.54
2023-02-12T17:32:02.687Z,1.31
2023-02-12T17:34:48.005Z,1.54
2023-02-12T17:37:19.780Z,2.04
2023-02-12T17:39:48.943Z,2.03
2023-02-12T17:42:24.885Z,2.00
2023-02-12T17:45:01.382Z,2.11
2023-02-12T17:48:00.561Z,1.85
2023-02-12T17:51:21.046Z,2.01
2023-02-12T17:54:29.104Z,2.18
2023-02-12T17:56:58.205Z,2.41
2023-02-12T17:59:27.235Z,2.46
2023-02-12T18:01:59.137Z,2.55
2023-02-12T18:04:28.458Z,2.81
2023-02-12T18:06:58.401Z,2.85
2023-02-12T18:09:28.418Z,3.06
2023-02-12T18:11:58.042Z,3.12
2023-02-12T18:14:27.034Z,2.88
2023-02-12T18:16:56.271Z,3.24
2023-02-12T18:19:28.019Z,3.51
2023-02-12T18:21:58.177Z,3.59
2023-02-12T18:24:27.293Z,3.52
2023-02-12T18:26:56.968Z,3.61
2023-02-12T18:29:25.886Z,3.71
2023-02-12T18:31:59.182Z,4.10
2023-02-12T18:34:29.103Z,4.36
2023-02-12T18:36:58.565Z,4.55
2023-02-12T18:39:29.525Z,4.68
2023-02-12T18:41:58.707Z,4.62
2023-02-12T18:44:27.618Z,4.52
2023-02-12T18:46:59.873Z,4.52
2023-02-12T18:49:29.499Z,4.59
2023-02-12T18:51:58.700Z,4.72
2023-02-12T18:54:27.629Z,4.70
2023-02-12T18:56:56.713Z,4.91
2023-02-12T18:59:27.341Z,5.10
2023-02-12T19:01:59.318Z,5.14
2023-02-12T19:04:28.622Z,5.46
2023-02-12T19:06:57.908Z,5.37
2023-02-12T19:09:27.355Z,5.45
2023-02-12T19:12:00.665Z,5.53
2023-02-12T19:14:30.253Z,5.65
2023-02-12T19:16:59.307Z,5.72
2023-02-12T19:19:28.711Z,5.46
2023-02-12T19:22:00.860Z,5.90
2023-02-12T19:24:44.366Z,6.04
2023-02-12T19:27:15.235Z,6.39
2023-02-12T19:29:44.358Z,6.55
2023-02-12T19:32:13.513Z,6.89
2023-02-12T19:34:43.089Z,7.01
2023-02-12T19:37:14.770Z,6.90
2023-02-12T19:39:43.930Z,6.66
2023-02-12T19:42:15.567Z,6.78
2023-02-12T19:44:47.449Z,7.31
2023-02-12T19:47:16.746Z,7.49
2023-02-12T19:49:45.753Z,7.89
2023-02-12T19:52:14.921Z,8.08
2023-02-12T19:54:46.089Z,8.30
2023-02-12T19:57:16.000Z,8.59
2023-02-12T19:59:47.214Z,8.88
2023-02-12T20:02:16.205Z,9.03
2023-02-12T20:04:45.270Z,9.13
2023-02-12T20:07:15.184Z,9.09
2023-02-12T20:09:44.192Z,8.21
2023-02-12T20:12:16.971Z,8.65
2023-02-12T20:14:46.178Z,8.65
2023-02-12T20:17:15.472Z,8.23
2023-02-12T20:19:44.479Z,8.57
2023-02-12T20:22:16.595Z,8.59
2023-02-12T20:24:47.837Z,8.51
2023-02-12T20:27:19.691Z,8.58
2023-02-12T20:29:48.676Z,8.67
2023-02-12T20:32:17.660Z,8.72
2023-02-12T20:34:51.170Z,8.70
2023-02-12T20:37:20.887Z,8.88
2023-02-12T20:39:50.288Z,9.01
2023-02-12T20:42:19.191Z,8.93
2023-02-12T20:44:48.304Z,8.98
2023-02-12T20:47:17.506Z,8.95
2023-02-12T20:49:49.203Z,9.08
2023-02-12T20:52:18.334Z,9.13
2023-02-12T20:54:48.029Z,9.16
2023-02-12T20:57:18.611Z,8.95
2023-02-12T20:59:50.633Z,8.81
2023-02-12T21:02:19.715Z,8.91
2023-02-12T21:04:53.086Z,8.79
2023-02-12T21:07:25.132Z,8.66
2023-02-12T21:10:20.400Z,8.70
2023-02-12T21:12:49.530Z,9.01
2023-02-12T21:15:18.553Z,9.10
2023-02-12T21:17:47.695Z,8.89
2023-02-12T21:20:16.741Z,8.87
2023-02-12T21:22:47.631Z,9.13
2023-02-12T21:25:17.959Z,9.05
2023-02-12T21:27:47.076Z,9.16
2023-02-12T21:30:16.245Z,8.92
2023-02-12T21:32:48.367Z,8.66
2023-02-12T21:35:17.332Z,8.92
2023-02-12T21:37:46.619Z,9.15
2023-02-12T21:40:18.657Z,9.16
2023-02-12T21:42:47.593Z,9.27
2023-02-12T21:45:19.392Z,9.18
2023-02-12T21:47:49.476Z,9.49
2023-02-12T21:50:19.630Z,9.51
2023-02-12T21:52:51.327Z,9.48
2023-02-12T21:55:22.204Z,9.46
2023-02-12T21:57:51.415Z,9.62
2023-02-12T22:00:20.729Z,9.70
2023-02-12T22:02:49.853Z,9.65
2023-02-12T22:05:19.069Z,9.42
2023-02-12T22:07:51.790Z,9.91
2023-02-12T22:10:21.320Z,9.96
2023-02-12T22:12:50.684Z,9.89
2023-02-12T22:15:30.712Z,9.88
2023-02-12T22:18:03.751Z,9.95
2023-02-12T22:20:35.740Z,10.00
2023-02-12T22:23:05.086Z,10.11
2023-02-12T22:25:37.076Z,10.11
2023-02-12T22:28:06.489Z,9.92
2023-02-12T22:30:38.945Z,9.83
2023-02-12T22:33:09.970Z,9.95
2023-02-12T22:35:39.050Z,10.17
2023-02-12T22:38:13.426Z,10.00
2023-02-12T22:40:42.335Z,10.12
2023-02-12T22:43:11.168Z,10.11
2023-02-12T22:45:44.999Z,9.68
2023-02-12T22:48:13.962Z,9.98
2023-02-12T22:50:42.800Z,10.09
2023-02-12T22:53:11.760Z,10.07
2023-02-12T22:55:41.399Z,9.81
2023-02-12T22:58:51.776Z,9.44
2023-02-12T23:03:13.486Z,9.69
2023-02-12T23:06:54.997Z,9.62
2023-02-12T23:09:27.056Z,9.78
2023-02-12T23:13:28.982Z,9.87
2023-02-12T23:16:04.847Z,9.99
2023-02-12T23:19:04.426Z,9.78
2023-02-12T23:21:36.559Z,9.78
2023-02-12T23:25:18.379Z,9.85
2023-02-12T23:28:37.156Z,9.86
2023-02-12T23:32:03.117Z,9.76
2023-02-12T23:34:59.231Z,9.84
2023-02-12T23:37:35.200Z,10.01
2023-02-12T23:40:32.936Z,9.98
2023-02-12T23:43:19.457Z,10.04
2023-02-12T23:46:16.047Z,10.03
2023-02-12T23:49:07.750Z,10.03
2023-02-12T23:51:36.776Z,10.04
2023-02-12T23:54:15.132Z,10.09
2023-02-12T23:56:46.720Z,10.08
2023-02-12T23:59:16.049Z,10.21
